createdAt,value
2022-09-27T00:01:36.771Z,1.10
2022-09-27T00:04:03.796Z,1.10
2022-09-27T00:06:31.683Z,1.10
2022-09-27T00:08:59.239Z,0.82
2022-09-27T00:11:29.207Z,1.00
2022-09-27T00:14:00.125Z,1.05
2022-09-27T00:16:31.932Z,0.90
2022-09-27T00:19:00.625Z,0.80
2022-09-27T00:21:28.556Z,0.80
2022-09-27T00:23:55.725Z,0.80
2022-09-27T00:26:22.870Z,0.80
2022-09-27T00:28:49.799Z,0.80
2022-09-27T00:31:29.682Z,0.80
2022-09-27T00:33:59.294Z,0.80
2022-09-27T00:36:27.712Z,0.90
2022-09-27T00:38:55.349Z,0.90
2022-09-27T00:41:25.880Z,0.80
2022-09-27T00:43:57.160Z,0.80
2022-09-27T00:46:37.522Z,1.00
2022-09-27T00:49:12.625Z,1.00
2022-09-27T00:51:40.542Z,0.80
2022-09-27T00:54:09.631Z,0.80
2022-09-27T00:56:37.204Z,0.80
2022-09-27T00:59:13.969Z,0.90
2022-09-27T01:01:41.311Z,0.95
2022-09-27T01:04:10.920Z,0.90
2022-09-27T01:06:38.582Z,0.90
2022-09-27T01:09:10.846Z,0.80
2022-09-27T01:11:47.305Z,0.77
2022-09-27T01:14:33.435Z,0.85
2022-09-27T01:17:27.962Z,0.80
2022-09-27T01:20:19.915Z,1.00
2022-09-27T01:23:08.717Z,0.90
2022-09-27T01:26:06.654Z,1.00
2022-09-27T01:29:13.477Z,0.80
2022-09-27T01:31:45.648Z,1.00
2022-09-27T01:34:42.171Z,0.90
2022-09-27T01:37:36.722Z,0.90
2022-09-27T01:40:16.942Z,0.90
2022-09-27T01:43:18.289Z,0.90
2022-09-27T01:46:06.358Z,0.90
2022-09-27T01:48:52.015Z,0.90
2022-09-27T01:51:22.530Z,0.90
2022-09-27T01:53:53.118Z,0.90
2022-09-27T01:56:41.852Z,0.85
2022-09-27T01:59:15.936Z,0.90
2022-09-27T02:01:52.563Z,1.10
2022-09-27T02:04:24.905Z,1.00
2022-09-27T02:09:55.290Z,1.50
2022-09-27T02:12:31.905Z,1.27
2022-09-27T02:15:07.768Z,1.30
2022-09-27T02:17:54.108Z,1.60
2022-09-27T02:20:41.790Z,1.30
2022-09-27T02:23:21.803Z,1.40
2022-09-27T02:26:06.491Z,1.42
2022-09-27T02:29:17.081Z,1.00
2022-09-27T02:31:51.962Z,1.50
2022-09-27T02:34:29.764Z,1.17
2022-09-27T02:36:57.114Z,1.30
2022-09-27T02:39:24.757Z,1.27
2022-09-27T02:42:02.041Z,1.17
2022-09-27T02:44:29.742Z,1.20
2022-09-27T02:47:02.862Z,1.10
2022-09-27T02:49:52.012Z,1.10
2022-09-27T02:53:10.334Z,1.10
2022-09-27T02:56:03.857Z,1.30
2022-09-27T02:59:17.041Z,1.38
2022-09-27T03:02:18.074Z,0.90
2022-09-27T03:05:06.451Z,1.08
2022-09-27T03:07:34.673Z,1.00
2022-09-27T03:10:01.986Z,1.00
2022-09-27T03:12:30.556Z,0.80
2022-09-27T03:15:00.357Z,0.90
2022-09-27T03:17:53.509Z,0.90
2022-09-27T03:20:40.793Z,0.88
2022-09-27T03:23:10.205Z,0.90
2022-09-27T03:25:37.338Z,0.80
2022-09-27T03:28:04.404Z,0.90
2022-09-27T03:30:32.512Z,1.00
2022-09-27T03:32:59.631Z,1.00
2022-09-27T03:36:04.855Z,0.85
2022-09-27T03:38:31.851Z,0.90
2022-09-27T03:40:59.236Z,0.90
2022-09-27T03:43:26.534Z,0.90
2022-09-27T03:45:57.515Z,0.90
2022-09-27T03:48:27.920Z,0.90
2022-09-27T03:50:55.352Z,0.90
2022-09-27T03:53:22.609Z,0.90
2022-09-27T03:55:49.697Z,0.90
2022-09-27T03:58:16.747Z,1.00
2022-09-27T04:00:44.195Z,0.90
2022-09-27T04:03:12.243Z,0.90
2022-09-27T04:06:00.726Z,0.85
2022-09-27T04:08:38.985Z,0.90
2022-09-27T04:11:07.251Z,0.90
2022-09-27T04:13:35.372Z,0.90
2022-09-27T04:16:03.138Z,0.90
2022-09-27T04:18:30.160Z,0.90
2022-09-27T04:21:15.765Z,0.90
2022-09-27T04:23:49.348Z,0.90
2022-09-27T04:26:19.656Z,0.90
2022-09-27T04:28:55.016Z,0.90
2022-09-27T04:31:23.168Z,0.80
2022-09-27T04:34:13.619Z,0.80
2022-09-27T04:36:40.767Z,0.90
2022-09-27T04:39:15.437Z,0.90
2022-09-27T04:41:45.192Z,0.90
2022-09-27T04:44:12.638Z,0.93
2022-09-27T04:46:42.906Z,0.90
2022-09-27T04:49:11.390Z,0.90
2022-09-27T04:51:38.490Z,0.80
2022-09-27T04:54:09.953Z,0.90
2022-09-27T04:56:50.055Z,0.90
2022-09-27T04:59:17.279Z,0.90
2022-09-27T05:01:45.411Z,1.00
2022-09-27T05:04:12.678Z,0.90
2022-09-27T05:06:43.715Z,0.90
2022-09-27T05:09:25.205Z,0.90
2022-09-27T05:11:57.097Z,0.90
2022-09-27T05:17:18.835Z,0.90
2022-09-27T05:20:06.151Z,0.80
2022-09-27T05:22:40.798Z,0.90
2022-09-27T05:25:08.540Z,0.90
2022-09-27T05:27:35.614Z,0.85
2022-09-27T05:30:02.825Z,0.80
2022-09-27T05:32:36.868Z,0.90
2022-09-27T05:35:24.321Z,0.90
2022-09-27T05:37:54.094Z,0.80
2022-09-27T05:40:42.466Z,0.80
2022-09-27T05:43:11.506Z,0.90
2022-09-27T05:45:42.067Z,0.80
2022-09-27T05:48:09.320Z,0.90
2022-09-27T05:50:47.441Z,0.90
2022-09-27T05:53:14.450Z,0.80
2022-09-27T05:55:43.183Z,0.80
2022-09-27T05:58:16.989Z,0.70
2022-09-27T06:00:53.048Z,0.80
2022-09-27T06:03:47.402Z,0.70
2022-09-27T06:06:40.469Z,0.80
2022-09-27T06:09:13.432Z,0.88
2022-09-27T06:11:44.438Z,0.80
2022-09-27T06:14:14.471Z,0.80
2022-09-27T06:17:07.533Z,0.70
2022-09-27T06:19:37.435Z,0.80
2022-09-27T06:22:04.882Z,0.80
2022-09-27T06:24:42.958Z,0.80
2022-09-27T06:27:19.168Z,0.80
2022-09-27T06:30:06.972Z,0.80
2022-09-27T06:32:48.631Z,0.80
2022-09-27T06:35:25.174Z,0.77
2022-09-27T06:37:53.068Z,0.80
2022-09-27T06:40:21.026Z,0.80
2022-09-27T06:43:09.360Z,0.70
2022-09-27T06:45:55.151Z,0.60
2022-09-27T06:48:40.958Z,0.70
2022-09-27T06:51:15.974Z,0.65
2022-09-27T06:53:43.790Z,0.60
2022-09-27T06:56:10.939Z,0.70
2022-09-27T06:59:12.113Z,0.70
2022-09-27T07:01:41.795Z,0.80
2022-09-27T07:07:04.196Z,0.82
2022-09-27T07:09:34.978Z,0.80
2022-09-27T07:12:02.248Z,0.70
2022-09-27T07:14:30.756Z,0.70
2022-09-27T07:16:58.195Z,0.70
2022-09-27T07:19:26.819Z,0.80
2022-09-27T07:21:53.968Z,0.70
2022-09-27T07:24:21.142Z,0.70
2022-09-27T07:26:49.411Z,0.70
2022-09-27T07:29:19.478Z,0.80
2022-09-27T07:31:48.196Z,0.70
2022-09-27T07:34:18.379Z,0.80
2022-09-27T07:36:48.677Z,0.90
2022-09-27T07:39:16.406Z,0.60
2022-09-27T07:41:44.532Z,0.60
2022-09-27T07:44:17.792Z,0.70
2022-09-27T07:47:11.089Z,0.80
2022-09-27T07:49:56.598Z,0.90
2022-09-27T07:52:43.300Z,0.80
2022-09-27T07:55:28.640Z,0.80
2022-09-27T07:58:10.873Z,0.80
2022-09-27T08:00:41.094Z,0.80
2022-09-27T08:03:18.091Z,0.57
2022-09-27T08:05:48.639Z,0.60
2022-09-27T08:08:16.670Z,0.60
2022-09-27T08:10:47.166Z,0.60
2022-09-27T08:13:18.073Z,0.70
2022-09-27T08:15:45.282Z,0.60
2022-09-27T08:18:12.634Z,0.60
2022-09-27T08:20:51.851Z,1.00
2022-09-27T08:23:26.914Z,0.70
2022-09-27T08:26:12.735Z,0.60
2022-09-27T08:28:53.142Z,0.90
2022-09-27T08:31:25.671Z,0.70
2022-09-27T08:33:55.137Z,0.70
2022-09-27T08:36:24.194Z,0.60
2022-09-27T08:38:57.957Z,0.60
2022-09-27T08:41:39.997Z,1.00
2022-09-27T08:44:49.232Z,1.00
2022-09-27T08:47:24.944Z,0.60
2022-09-27T08:50:19.328Z,0.50
2022-09-27T08:52:50.809Z,0.60
2022-09-27T08:55:26.226Z,0.60
2022-09-27T08:57:56.814Z,0.70
2022-09-27T09:00:28.553Z,0.60
2022-09-27T09:03:01.884Z,0.50
2022-09-27T09:05:33.682Z,0.50
2022-09-27T09:08:07.447Z,0.60
2022-09-27T09:11:10.240Z,1.00
2022-09-27T09:14:18.142Z,0.90
2022-09-27T09:16:58.372Z,0.90
2022-09-27T09:19:29.337Z,0.88
2022-09-27T09:22:29.107Z,0.80
2022-09-27T09:25:31.304Z,0.90
2022-09-27T09:28:12.649Z,0.80
2022-09-27T09:31:07.376Z,0.90
2022-09-27T09:33:36.965Z,0.90
2022-09-27T09:36:35.033Z,0.80
2022-09-27T09:39:11.589Z,0.80
2022-09-27T09:41:44.728Z,0.80
2022-09-27T09:44:28.397Z,0.80
2022-09-27T09:47:02.604Z,0.80
2022-09-27T09:49:39.456Z,0.70
2022-09-27T09:52:11.960Z,0.80
2022-09-27T09:54:43.384Z,0.70
2022-09-27T09:57:35.916Z,0.70
2022-09-27T10:00:14.566Z,0.80
2022-09-27T10:02:49.542Z,0.70
2022-09-27T10:05:23.487Z,0.80
2022-09-27T10:08:00.033Z,0.30
2022-09-27T10:10:27.627Z,0.70
2022-09-27T10:12:55.579Z,0.50
2022-09-27T10:15:30.360Z,0.85
2022-09-27T10:18:02.474Z,0.80
2022-09-27T10:21:03.027Z,0.70
2022-09-27T10:23:30.457Z,0.35
2022-09-27T10:26:20.078Z,0.80
2022-09-27T10:28:51.924Z,0.40
2022-09-27T10:31:25.264Z,0.80
2022-09-27T10:34:07.763Z,0.80
2022-09-27T10:36:42.103Z,0.30
2022-09-27T10:39:23.533Z,0.40
2022-09-27T10:41:51.370Z,0.52
2022-09-27T10:44:27.911Z,0.40
2022-09-27T10:47:10.409Z,0.90
2022-09-27T10:49:45.354Z,0.40
2022-09-27T10:52:26.872Z,0.40
2022-09-27T10:55:01.279Z,0.50
2022-09-27T10:57:30.174Z,0.60
2022-09-27T11:00:00.932Z,0.40
2022-09-27T11:02:37.973Z,0.40
2022-09-27T11:05:31.218Z,0.50
2022-09-27T11:08:04.108Z,0.50
2022-09-27T11:10:45.198Z,1.00
2022-09-27T11:13:16.645Z,0.70
2022-09-27T11:16:08.649Z,0.50
2022-09-27T11:19:15.626Z,0.40
2022-09-27T11:22:30.925Z,0.40
2022-09-27T11:25:38.602Z,0.40
2022-09-27T11:28:50.177Z,0.90
2022-09-27T11:31:41.080Z,0.80
2022-09-27T11:34:39.532Z,0.77
2022-09-27T11:37:16.134Z,0.70
2022-09-27T11:39:53.528Z,0.70
2022-09-27T11:42:39.569Z,0.65
2022-09-27T11:45:40.947Z,0.63
2022-09-27T11:48:39.704Z,0.30
2022-09-27T11:51:18.969Z,0.30
2022-09-27T11:54:04.885Z,0.60
2022-09-27T11:56:36.358Z,0.70
2022-09-27T11:59:37.889Z,0.40
2022-09-27T12:03:01.693Z,0.88
2022-09-27T12:06:07.710Z,0.90
2022-09-27T12:09:08.197Z,0.80
2022-09-27T12:11:45.099Z,0.40
2022-09-27T12:14:41.553Z,0.60
2022-09-27T12:17:17.729Z,0.68
2022-09-27T12:19:55.950Z,0.30
2022-09-27T12:23:00.602Z,0.32
2022-09-27T12:25:53.473Z,0.60
2022-09-27T12:28:42.384Z,0.40
2022-09-27T12:31:29.821Z,0.40
2022-09-27T12:34:03.320Z,0.40
2022-09-27T12:36:38.747Z,0.40
2022-09-27T12:39:26.962Z,0.40
2022-09-27T12:42:12.575Z,0.40
2022-09-27T12:44:47.594Z,0.40
2022-09-27T12:47:24.606Z,0.40
2022-09-27T12:50:20.451Z,0.40
2022-09-27T12:52:53.487Z,0.40
2022-09-27T12:56:18.005Z,0.45
2022-09-27T12:58:57.012Z,0.40
2022-09-27T13:01:49.950Z,0.40
2022-09-27T13:04:34.139Z,0.40
2022-09-27T13:07:43.297Z,0.40
2022-09-27T13:10:29.635Z,0.40
2022-09-27T13:13:01.421Z,0.50
2022-09-27T13:15:32.168Z,0.40
2022-09-27T13:18:03.119Z,0.50
2022-09-27T13:20:42.993Z,0.40
2022-09-27T13:23:34.058Z,0.50
2022-09-27T13:26:23.547Z,0.50
2022-09-27T13:29:02.879Z,0.40
2022-09-27T13:31:54.488Z,0.50
2022-09-27T13:35:22.217Z,0.43
2022-09-27T13:38:00.884Z,0.45
2022-09-27T13:40:40.535Z,0.50
2022-09-27T13:43:16.551Z,0.50
2022-09-27T13:46:09.292Z,0.50
2022-09-27T13:48:56.297Z,0.50
2022-09-27T13:51:53.473Z,0.50
2022-09-27T13:54:50.036Z,0.50
2022-09-27T13:57:36.260Z,0.50
2022-09-27T14:00:15.552Z,0.40
2022-09-27T14:03:09.064Z,0.45
2022-09-27T14:06:05.400Z,0.50
2022-09-27T14:08:40.412Z,0.50
2022-09-27T14:11:13.913Z,0.50
2022-09-27T14:13:44.098Z,0.50
2022-09-27T14:16:16.127Z,0.50
2022-09-27T14:18:48.236Z,0.40
2022-09-27T14:21:33.991Z,0.40
2022-09-27T14:24:33.122Z,0.50
2022-09-27T14:30:01.136Z,0.50
2022-09-27T14:32:35.257Z,0.50
2022-09-27T14:35:31.821Z,0.50
2022-09-27T14:38:15.745Z,0.50
2022-09-27T14:40:59.403Z,0.43
2022-09-27T14:43:27.230Z,0.47
2022-09-27T14:45:58.947Z,0.50
2022-09-27T14:48:41.396Z,0.50
2022-09-27T14:51:14.296Z,0.50
2022-09-27T14:53:45.904Z,0.50
2022-09-27T14:56:20.231Z,0.50
2022-09-27T14:58:48.366Z,0.50
2022-09-27T15:01:24.425Z,0.50
2022-09-27T15:03:53.164Z,0.50
2022-09-27T15:06:20.619Z,0.50
2022-09-27T15:08:49.684Z,0.50
2022-09-27T15:11:19.573Z,0.50
2022-09-27T15:13:51.813Z,0.50
2022-09-27T15:16:21.386Z,0.50
2022-09-27T15:19:19.038Z,0.50
2022-09-27T15:21:49.140Z,0.50
2022-09-27T15:24:38.035Z,0.50
2022-09-27T15:27:13.843Z,0.50
2022-09-27T15:29:40.920Z,0.50
2022-09-27T15:32:15.227Z,0.50
2022-09-27T15:34:45.075Z,0.50
2022-09-27T15:37:26.142Z,0.52
2022-09-27T15:39:53.048Z,0.50
2022-09-27T15:42:20.258Z,0.50
2022-09-27T15:44:58.041Z,0.50
2022-09-27T15:47:43.453Z,0.47
2022-09-27T15:50:16.552Z,0.50
2022-09-27T15:52:47.695Z,0.50
2022-09-27T15:55:15.229Z,0.50
2022-09-27T15:57:46.317Z,0.50
2022-09-27T16:00:26.050Z,0.50
2022-09-27T16:03:11.146Z,0.50
2022-09-27T16:06:16.793Z,0.50
2022-09-27T16:32:03.578Z,0.50
2022-09-27T16:38:27.599Z,0.50
2022-09-27T16:40:54.965Z,0.50
2022-09-27T16:43:27.566Z,0.50
2022-09-27T16:45:55.974Z,0.50
2022-09-27T16:48:23.264Z,0.52
2022-09-27T16:51:08.878Z,0.50
2022-09-27T16:53:36.592Z,0.60
2022-09-27T16:56:03.572Z,0.50
2022-09-27T16:58:31.001Z,0.50
2022-09-27T17:00:58.966Z,0.50
2022-09-27T17:03:26.070Z,0.60
2022-09-27T17:06:01.749Z,0.50
2022-09-27T17:08:28.805Z,0.50
2022-09-27T17:10:57.111Z,0.60
2022-09-27T17:13:26.389Z,0.50
2022-09-27T17:15:54.382Z,0.50
2022-09-27T17:18:21.312Z,0.50
2022-09-27T17:20:48.506Z,0.50
2022-09-27T17:23:15.477Z,0.50
2022-09-27T17:25:42.387Z,0.50
2022-09-27T17:28:09.346Z,0.50
2022-09-27T17:30:36.208Z,0.50
2022-09-27T17:33:03.702Z,0.60
2022-09-27T17:35:31.332Z,0.50
2022-09-27T17:37:58.347Z,0.52
2022-09-27T17:40:25.324Z,0.50
2022-09-27T17:42:52.814Z,0.50
2022-09-27T17:45:35.392Z,0.52
2022-09-27T17:48:22.140Z,0.50
2022-09-27T17:50:49.004Z,0.50
2022-09-27T17:53:15.956Z,0.50
2022-09-27T17:55:42.946Z,0.50
2022-09-27T17:58:09.847Z,0.50
2022-09-27T18:00:37.018Z,0.60
2022-09-27T18:03:05.560Z,0.50
2022-09-27T18:05:32.696Z,0.60
2022-09-27T18:08:00.397Z,0.50
2022-09-27T18:10:28.756Z,0.50
2022-09-27T18:12:57.150Z,0.60
2022-09-27T18:15:24.032Z,0.60
2022-09-27T18:17:57.133Z,0.45
2022-09-27T18:20:25.235Z,0.60
2022-09-27T18:22:53.378Z,0.50
2022-09-27T18:25:20.436Z,0.50
2022-09-27T18:27:52.668Z,0.50
2022-09-27T18:30:19.667Z,0.50
2022-09-27T18:32:46.656Z,0.60
2022-09-27T18:35:13.603Z,0.50
2022-09-27T18:37:44.573Z,0.60
2022-09-27T18:40:14.315Z,0.50
2022-09-27T18:42:41.271Z,0.60
2022-09-27T18:45:09.187Z,0.60
2022-09-27T18:47:44.428Z,0.60
2022-09-27T18:50:11.578Z,0.60
2022-09-27T18:52:39.552Z,0.50
2022-09-27T18:55:07.190Z,0.60
2022-09-27T18:57:41.088Z,0.60
2022-09-27T19:00:09.866Z,0.60
2022-09-27T19:02:37.343Z,0.52
2022-09-27T19:05:04.651Z,0.50
2022-09-27T19:07:33.140Z,0.60
2022-09-27T19:10:00.004Z,0.60
2022-09-27T19:12:28.016Z,0.60
2022-09-27T19:14:55.695Z,0.60
2022-09-27T19:17:27.651Z,0.60
2022-09-27T19:19:54.629Z,0.60
2022-09-27T19:22:21.796Z,0.57
2022-09-27T19:24:48.743Z,0.60
2022-09-27T19:27:16.054Z,0.52
2022-09-27T19:29:43.096Z,0.50
2022-09-27T19:32:10.270Z,0.60
2022-09-27T19:34:38.348Z,0.50
2022-09-27T19:37:05.335Z,0.50
2022-09-27T19:39:35.169Z,0.50
2022-09-27T19:42:02.605Z,0.50
2022-09-27T19:44:29.620Z,0.50
2022-09-27T19:46:58.179Z,0.57
2022-09-27T19:49:26.064Z,0.50
2022-09-27T19:51:53.152Z,0.50
2022-09-27T19:54:20.155Z,0.60
2022-09-27T19:56:49.152Z,0.60
2022-09-27T19:59:16.353Z,0.60
2022-09-27T20:01:44.134Z,0.50
2022-09-27T20:04:13.064Z,0.50
2022-09-27T20:06:40.189Z,0.50
2022-09-27T20:09:07.158Z,0.60
2022-09-27T20:11:35.004Z,0.60
2022-09-27T20:14:02.053Z,0.50
2022-09-27T20:16:29.129Z,0.50
2022-09-27T20:18:57.980Z,0.50
2022-09-27T20:21:27.389Z,0.60
2022-09-27T20:23:55.889Z,0.50
2022-09-27T20:26:24.519Z,0.50
2022-09-27T20:28:57.244Z,0.50
2022-09-27T20:31:26.721Z,0.50
2022-09-27T20:33:53.807Z,0.50
2022-09-27T20:36:24.814Z,0.50
2022-09-27T20:39:01.897Z,0.50
2022-09-27T20:41:35.714Z,0.50
2022-09-27T20:44:08.072Z,0.50
2022-09-27T20:46:36.334Z,0.50
2022-09-27T20:49:05.849Z,0.50
2022-09-27T20:51:34.293Z,0.60
2022-09-27T20:54:05.320Z,0.50
2022-09-27T20:56:34.663Z,0.60
2022-09-27T20:59:17.400Z,0.50
2022-09-27T21:01:49.522Z,0.60
2022-09-27T21:04:17.898Z,0.60
2022-09-27T21:06:45.379Z,0.60
2022-09-27T21:09:18.727Z,0.50
2022-09-27T21:11:47.677Z,0.60
2022-09-27T21:14:14.685Z,0.60
2022-09-27T21:16:42.055Z,0.60
2022-09-27T21:19:09.982Z,0.60
2022-09-27T21:21:37.068Z,0.60
2022-09-27T21:24:04.480Z,0.60
2022-09-27T21:26:33.190Z,0.60
2022-09-27T21:29:01.699Z,0.60
2022-09-27T21:31:43.017Z,0.60
2022-09-27T21:34:10.019Z,0.60
2022-09-27T21:36:38.476Z,0.60
2022-09-27T21:39:08.710Z,0.60
2022-09-27T21:41:36.722Z,0.60
2022-09-27T21:44:04.811Z,0.60
2022-09-27T21:46:31.924Z,0.60
2022-09-27T21:49:00.353Z,0.60
2022-09-27T21:51:29.731Z,0.60
2022-09-27T21:54:00.843Z,0.60
2022-09-27T21:56:31.790Z,0.60
2022-09-27T21:58:58.766Z,0.60
2022-09-27T22:01:29.886Z,0.60
2022-09-27T22:03:57.736Z,0.60
2022-09-27T22:06:27.535Z,0.60
2022-09-27T22:08:55.113Z,0.60
2022-09-27T22:11:28.088Z,0.60
2022-09-27T22:13:55.284Z,0.60
2022-09-27T22:16:23.319Z,0.60
2022-09-27T22:18:51.860Z,0.60
2022-09-27T22:21:21.877Z,0.60
2022-09-27T22:23:56.531Z,0.60
2022-09-27T22:26:28.719Z,0.60
2022-09-27T22:28:56.254Z,0.60
2022-09-27T22:31:23.849Z,0.60
2022-09-27T22:33:52.059Z,0.60
2022-09-27T22:36:18.988Z,0.60
2022-09-27T22:38:46.619Z,0.60
2022-09-27T22:41:13.715Z,0.60
2022-09-27T22:43:40.587Z,0.60
2022-09-27T22:46:08.200Z,0.60
2022-09-27T22:48:36.593Z,0.60
2022-09-27T22:51:04.219Z,0.60
2022-09-27T22:53:31.914Z,0.60
2022-09-27T22:56:05.371Z,0.60
2022-09-27T22:58:32.920Z,0.50
2022-09-27T23:01:00.520Z,0.60
2022-09-27T23:03:27.495Z,0.60
2022-09-27T23:05:54.368Z,0.57
2022-09-27T23:08:21.778Z,0.60
2022-09-27T23:10:48.748Z,0.60
2022-09-27T23:13:15.633Z,0.60
2022-09-27T23:15:42.520Z,0.50
2022-09-27T23:18:10.193Z,0.50
2022-09-27T23:20:38.202Z,0.57
2022-09-27T23:23:05.047Z,0.55
2022-09-27T23:25:32.135Z,0.60
2022-09-27T23:27:59.499Z,0.52
2022-09-27T23:30:29.008Z,0.60
2022-09-27T23:32:56.126Z,0.60
2022-09-27T23:35:23.708Z,0.60
2022-09-27T23:37:53.265Z,0.60
2022-09-27T23:40:20.357Z,0.60
2022-09-27T23:42:47.439Z,0.60
2022-09-27T23:45:15.958Z,0.60
2022-09-27T23:47:42.899Z,0.57
2022-09-27T23:50:10.178Z,0.55
2022-09-27T23:52:37.111Z,0.60
2022-09-27T23:55:04.491Z,0.70
2022-09-27T23:57:31.689Z,0.60
2022-09-27T23:59:58.573Z,0.60
